Time;durP1;ratioP1;P1;durP2;ratioP2;P2;SDS_P1;SDS_P2;PMS_P1;PMS_P2;Temp;Humidity;BMP_temperature;BMP_pressure;BME280_temperature;BME280_humidity;BME280_pressure;Samples;Min_cycle;Max_cycle;Signal;HPM_P1;HPM_P2
2021/03/29 00:00:35;;;;;;;17.25;10.28;;;;;;;3.91;72.08;101696.63;233598;1203;103178;-74
2021/03/29 00:05:51;;;;;;;18.40;11.40;;;;;;;3.91;72.33;101696.63;233528;1206;103155;-74
2021/03/29 00:10:54;;;;;;;16.78;11.35;;;;;;;3.88;72.52;101692.19;233546;1206;103288;-74
2021/03/29 00:15:58;;;;;;;16.80;11.60;;;;;;;3.87;72.46;101694.81;233649;1206;103152;-74
2021/03/29 00:21:08;;;;;;;18.60;11.15;;;;;;;3.81;73.10;101690.36;233583;1205;103578;-73
2021/03/29 00:26:10;;;;;;;15.90;10.50;;;;;;;3.85;72.70;101686.90;233527;1206;103143;-75
2021/03/29 00:31:12;;;;;;;18.67;11.47;;;;;;;3.88;72.68;101681.63;233665;1206;103246;-74
2021/03/29 00:36:14;;;;;;;16.10;10.80;;;;;;;3.87;72.75;101685.17;233804;1206;103219;-73
2021/03/29 00:41:17;;;;;;;15.70;9.60;;;;;;;3.95;72.26;101694.00;234008;1206;103193;-75
2021/03/29 00:46:20;;;;;;;17.90;10.10;;;;;;;4.01;72.34;101687.90;233890;1205;103209;-74
2021/03/29 00:51:29;;;;;;;15.85;9.85;;;;;;;4.05;72.26;101688.81;237891;1205;103875;-73
2021/03/29 00:56:32;;;;;;;20.00;12.00;;;;;;;4.05;73.42;101700.27;233993;1204;103150;-74
2021/03/29 01:01:41;;;;;;;17.00;11.40;;;;;;;4.12;72.39;101701.18;233339;1206;103165;-74
2021/03/29 01:06:45;;;;;;;21.80;9.80;;;;;;;4.17;72.28;101699.45;232868;1206;103190;-74
2021/03/29 01:11:57;;;;;;;15.15;10.15;;;;;;;4.29;71.66;101694.28;232868;1206;103261;-74
2021/03/29 01:17:07;;;;;;;15.73;9.80;;;;;;;4.39;71.13;101689.04;232959;1205;103238;-74
2021/03/29 01:22:09;;;;;;;14.35;9.90;;;;;;;4.45;71.82;101691.72;233568;1205;103210;-74
2021/03/29 01:27:19;;;;;;;16.15;10.30;;;;;;;4.48;70.91;101683.83;232788;1204;104543;-74
2021/03/29 01:32:22;;;;;;;14.73;10.23;;;;;;;4.46;72.34;101691.75;233495;1206;103136;-74
2021/03/29 01:37:26;;;;;;;16.60;9.50;;;;;;;4.44;72.79;101692.62;233579;1205;103220;-76
2021/03/29 01:42:27;;;;;;;15.47;10.03;;;;;;;4.62;70.87;101681.25;233687;1205;103130;-75
2021/03/29 01:47:29;;;;;;;13.70;8.80;;;;;;;4.75;70.15;101684.84;233127;1206;103239;-74
2021/03/29 01:52:31;;;;;;;14.80;9.30;;;;;;;4.59;70.30;101687.40;233184;1206;103165;-73
2021/03/29 01:57:33;;;;;;;13.57;8.67;;;;;;;4.64;70.33;101690.07;234128;1206;103606;-73
2021/03/29 02:02:35;;;;;;;10.20;7.68;;;;;;;4.65;70.18;101688.33;233585;1206;103305;-76
2021/03/29 02:07:38;;;;;;;11.87;8.10;;;;;;;4.60;70.37;101696.22;234084;1206;103133;-75
2021/03/29 02:12:41;;;;;;;12.77;8.13;;;;;;;4.60;70.53;101691.81;233450;1205;103639;-74
2021/03/29 02:17:43;;;;;;;13.20;7.80;;;;;;;4.60;70.34;101688.30;233576;1206;103220;-73
2021/03/29 02:22:49;;;;;;;11.50;8.50;;;;;;;4.59;70.52;101690.04;233298;1207;103162;-74
2021/03/29 02:27:52;;;;;;;12.70;8.60;;;;;;;4.56;70.43;101674.20;233408;1205;103596;-74
2021/03/29 02:32:54;;;;;;;12.80;7.80;;;;;;;4.54;71.13;101688.27;233551;1204;103156;-74
2021/03/29 02:37:57;;;;;;;12.50;8.25;;;;;;;4.53;70.91;101692.66;233590;1203;103981;-73
2021/03/29 02:43:00;;;;;;;15.07;8.87;;;;;;;4.52;71.79;101690.02;233440;1206;103204;-73
2021/03/29 02:48:14;;;;;;;12.80;8.20;;;;;;;4.52;70.99;101690.88;233500;1206;103175;-72
2021/03/29 02:53:22;;;;;;;11.70;8.30;;;;;;;4.50;71.49;101692.66;233394;1205;103162;-74
2021/03/29 02:58:28;;;;;;;12.70;8.47;;;;;;;4.50;71.12;101694.39;233572;1206;103876;-74
2021/03/29 03:03:30;;;;;;;13.13;8.33;;;;;;;4.47;72.02;101698.77;233843;1205;103182;-74
2021/03/29 03:08:37;;;;;;;13.30;8.90;;;;;;;4.43;72.62;101685.56;233038;1206;103119;-75
2021/03/29 03:13:42;;;;;;;13.10;9.20;;;;;;;4.34;73.53;101685.50;233682;1206;103230;-74
2021/03/29 03:18:48;;;;;;;11.50;8.70;;;;;;;4.38;73.38;101676.70;232860;1203;103224;-73
2021/03/29 03:23:55;;;;;;;10.60;8.03;;;;;;;4.36;73.47;101681.12;233218;1179;114331;-74
2021/03/29 03:28:57;;;;;;;14.05;9.05;;;;;;;4.31;74.49;101676.67;233167;1179;114493;-74
2021/03/29 03:34:02;;;;;;;12.25;9.40;;;;;;;4.35;75.71;101680.22;233111;1179;114656;-73
2021/03/29 03:39:04;;;;;;;15.20;10.20;;;;;;;4.26;77.42;101678.41;233354;1178;114801;-74
2021/03/29 03:44:07;;;;;;;13.13;10.20;;;;;;;4.23;79.98;101694.21;233053;1179;114495;-74
2021/03/29 03:49:15;;;;;;;14.60;10.30;;;;;;;4.30;83.45;101693.38;233299;1178;114912;-74
2021/03/29 03:54:20;;;;;;;12.80;10.25;;;;;;;4.27;83.54;101696.02;233101;1178;114692;-72
2021/03/29 03:59:22;;;;;;;16.85;10.50;;;;;;;4.25;85.09;101686.33;233492;1179;114918;-73
2021/03/29 04:04:23;;;;;;;14.83;9.78;;;;;;;4.26;87.16;101696.02;235108;1179;114559;-72
2021/03/29 04:09:42;;;;;;;15.00;10.50;;;;;;;4.15;89.76;101685.38;234393;1179;114394;-72
2021/03/29 04:14:43;;;;;;;15.75;11.35;;;;;;;4.08;94.98;101699.41;234787;1179;114526;-73
2021/03/29 04:19:44;;;;;;;16.80;11.80;;;;;;;3.93;99.62;101698.41;233183;1180;114843;-74
2021/03/29 04:24:46;;;;;;;15.70;12.10;;;;;;;4.01;100.00;101697.59;233052;1179;114912;-74
2021/03/29 04:29:47;;;;;;;19.57;11.67;;;;;;;4.03;100.00;101701.09;232558;1179;115378;-71
2021/03/29 04:34:49;;;;;;;19.55;12.65;;;;;;;4.05;100.00;101699.36;232315;1179;114935;-71
2021/03/29 04:39:51;;;;;;;17.70;12.75;;;;;;;4.02;100.00;101712.55;232468;1178;115156;-72
2021/03/29 04:44:54;;;;;;;18.13;12.93;;;;;;;3.95;100.00;101701.91;233037;1178;114711;-74
2021/03/29 04:49:55;;;;;;;20.08;12.90;;;;;;;3.98;100.00;101703.73;233322;1180;114831;-74
2021/03/29 04:54:56;;;;;;;16.80;11.10;;;;;;;4.05;100.00;101707.28;233734;1179;114652;-74
2021/03/29 04:59:58;;;;;;;17.80;11.90;;;;;;;4.17;100.00;101702.09;233610;1202;103281;-75
2021/03/29 05:05:00;;;;;;;19.20;13.57;;;;;;;4.18;100.00;101698.58;233727;1202;103207;-74
2021/03/29 05:10:07;;;;;;;20.25;13.10;;;;;;;4.24;100.00;101695.11;233659;1202;103146;-74
2021/03/29 05:15:09;;;;;;;17.40;12.35;;;;;;;4.24;100.00;101701.27;233762;1203;103223;-73
2021/03/29 05:20:11;;;;;;;15.20;11.23;;;;;;;4.27;100.00;101688.10;233738;1203;103154;-75
2021/03/29 05:25:17;;;;;;;17.08;12.30;;;;;;;4.34;100.00;101685.50;233650;1202;103309;-75
2021/03/29 05:30:19;;;;;;;17.33;12.50;;;;;;;4.38;100.00;101681.98;233700;1202;103137;-76
2021/03/29 05:35:21;;;;;;;17.30;11.20;;;;;;;4.46;100.00;101685.56;233625;1202;103255;-75
2021/03/29 05:40:22;;;;;;;14.70;10.15;;;;;;;4.62;100.00;101692.71;233822;1203;103168;-74
2021/03/29 05:45:30;;;;;;;16.33;11.23;;;;;;;4.76;100.00;101691.90;234022;1202;103146;-74
2021/03/29 05:50:31;;;;;;;15.43;10.50;;;;;;;4.84;100.00;101692.82;234007;1203;103139;-75
2021/03/29 05:55:36;;;;;;;15.60;11.95;;;;;;;4.87;100.00;101697.23;233830;1203;103231;-75
2021/03/29 06:00:42;;;;;;;14.10;10.70;;;;;;;4.95;100.00;101699.02;233568;1203;103174;-76
2021/03/29 06:05:44;;;;;;;16.30;10.67;;;;;;;5.04;100.00;101702.59;233593;1203;103238;-75
2021/03/29 06:10:49;;;;;;;16.68;9.95;;;;;;;5.20;100.00;101696.48;233598;1202;103213;-74
2021/03/29 06:16:09;;;;;;;12.78;9.25;;;;;;;5.39;100.00;101701.81;233694;1202;103210;-75
2021/03/29 06:21:12;;;;;;;14.50;9.40;;;;;;;5.49;100.00;101706.27;233549;1203;103511;-74
2021/03/29 06:26:24;;;;;;;15.80;10.30;;;;;;;5.59;100.00;101702.73;233642;1203;103201;-76
2021/03/29 06:31:34;;;;;;;13.25;9.25;;;;;;;5.71;100.00;101712.45;233661;1203;103149;-75
2021/03/29 06:36:40;;;;;;;10.95;8.20;;;;;;;5.88;100.00;101712.47;233872;1203;103161;-75
2021/03/29 06:41:51;;;;;;;13.40;9.30;;;;;;;5.95;100.00;101723.06;234188;1203;103143;-78
2021/03/29 06:47:11;;;;;;;13.18;9.33;;;;;;;5.97;100.00;101731.89;233782;1202;103756;-75
2021/03/29 06:52:29;;;;;;;14.40;9.20;;;;;;;6.01;100.00;101729.28;233792;1202;112179;-76
2021/03/29 06:57:31;;;;;;;12.00;7.80;;;;;;;6.13;100.00;101733.67;233773;1203;103210;-74
2021/03/29 07:02:46;;;;;;;12.70;9.10;;;;;;;6.09;100.00;101737.21;233766;1203;103197;-76
2021/03/29 07:07:47;;;;;;;14.37;8.77;;;;;;;6.10;100.00;101733.69;233736;1202;103587;-75
2021/03/29 07:12:50;;;;;;;13.57;7.40;;;;;;;6.13;100.00;101744.26;233772;1203;103164;-73
2021/03/29 07:17:52;;;;;;;10.77;7.77;;;;;;;6.28;100.00;101737.20;236440;1202;103226;-73
2021/03/29 07:22:55;;;;;;;11.10;8.45;;;;;;;6.39;100.00;101732.80;236072;1202;103108;-75
2021/03/29 07:28:00;;;;;;;10.03;7.40;;;;;;;6.49;100.00;101731.88;234962;1203;103136;-76
2021/03/29 07:33:02;;;;;;;9.33;6.63;;;;;;;6.60;100.00;101738.94;235694;1202;107185;-76
2021/03/29 07:38:04;;;;;;;10.50;6.70;;;;;;;6.65;100.00;101737.16;234213;1203;103545;-75
2021/03/29 07:43:08;;;;;;;8.93;7.67;;;;;;;6.69;100.00;101723.89;233946;1202;103136;-74
2021/03/29 07:48:13;;;;;;;10.10;8.10;;;;;;;6.86;100.00;101736.23;233804;1203;103136;-77
2021/03/29 07:53:19;;;;;;;11.70;7.80;;;;;;;7.06;100.00;101737.92;233988;1203;103104;-73
2021/03/29 07:58:26;;;;;;;15.05;7.85;;;;;;;7.20;100.00;101740.50;234556;1203;103225;-74
2021/03/29 08:03:33;;;;;;;11.00;6.90;;;;;;;7.30;100.00;101726.33;234768;1203;103216;-75
2021/03/29 08:08:35;;;;;;;14.57;7.97;;;;;;;7.46;100.00;101727.11;234588;1202;103136;-76
2021/03/29 08:13:44;;;;;;;13.00;7.90;;;;;;;7.63;100.00;101727.01;235047;1202;103140;-75
2021/03/29 08:19:10;;;;;;;11.10;8.05;;;;;;;7.84;100.00;101722.44;234534;1203;103209;-76
2021/03/29 08:24:23;;;;;;;9.70;7.30;;;;;;;8.10;100.00;101717.83;234271;1202;106870;-76
2021/03/29 08:29:29;;;;;;;12.10;8.00;;;;;;;8.29;100.00;101715.86;234069;1203;103267;-76
2021/03/29 08:34:34;;;;;;;9.35;7.35;;;;;;;8.37;100.00;101714.91;234100;1203;103212;-77
2021/03/29 08:39:44;;;;;;;17.80;7.87;;;;;;;8.48;100.00;101714.84;234271;1202;103216;-75
2021/03/29 08:44:49;;;;;;;11.87;6.93;;;;;;;8.62;99.15;101710.27;234331;1203;117589;-75
2021/03/29 08:49:55;;;;;;;10.77;6.80;;;;;;;8.77;99.86;101714.55;234087;1202;103290;-76
2021/03/29 08:54:58;;;;;;;7.73;5.90;;;;;;;8.86;97.67;101710.89;234447;1203;103175;-76
2021/03/29 09:00:12;;;;;;;7.03;6.23;;;;;;;8.88;98.26;101712.63;233917;1201;103223;-75
2021/03/29 09:05:16;;;;;;;10.60;6.50;;;;;;;9.19;97.86;101719.34;234046;1203;103258;-75
2021/03/29 09:10:36;;;;;;;9.00;6.03;;;;;;;9.14;97.01;101710.55;233818;1203;104077;-77
2021/03/29 09:15:40;;;;;;;9.03;6.33;;;;;;;9.24;99.57;101725.47;234216;1203;106273;-76
2021/03/29 09:20:49;;;;;;;8.80;6.15;;;;;;;9.12;99.64;101718.56;233938;1202;103149;-74
2021/03/29 09:25:52;;;;;;;11.38;6.63;;;;;;;9.30;100.00;101733.41;234010;1202;110668;-75
2021/03/29 09:30:59;;;;;;;12.17;6.93;;;;;;;9.23;98.15;101731.73;233846;1202;103300;-75
2021/03/29 09:36:10;;;;;;;10.30;6.50;;;;;;;9.27;100.00;101730.77;234009;1202;103145;-77
2021/03/29 09:41:17;;;;;;;12.30;7.43;;;;;;;9.28;100.00;101729.88;233708;1202;103507;-76
2021/03/29 09:46:33;;;;;;;10.00;6.33;;;;;;;9.31;100.00;101724.49;233930;1203;103117;-75
2021/03/29 09:51:36;;;;;;;11.30;6.70;;;;;;;9.20;100.00;101748.58;234469;1202;103150;-74
2021/03/29 09:56:40;;;;;;;11.80;7.85;;;;;;;9.06;99.83;101740.79;234018;1202;103210;-76
2021/03/29 10:01:45;;;;;;;9.47;6.70;;;;;;;9.15;100.00;101722.95;234036;1202;103194;-75
2021/03/29 10:06:54;;;;;;;11.83;7.70;;;;;;;9.12;100.00;101723.88;234015;1203;107374;-75
2021/03/29 10:11:57;;;;;;;10.53;6.70;;;;;;;9.30;100.00;101720.09;234276;1202;103212;-74
2021/03/29 10:17:00;;;;;;;10.57;7.60;;;;;;;9.32;99.39;101736.91;234440;1203;109422;-76
2021/03/29 10:22:11;;;;;;;11.50;8.50;;;;;;;9.59;98.55;101718.78;235373;1202;103140;-76
2021/03/29 10:27:13;;;;;;;13.57;9.03;;;;;;;9.81;96.31;101731.77;234508;1202;116341;-74
2021/03/29 10:32:20;;;;;;;11.00;8.35;;;;;;;9.75;96.47;101723.88;234908;1202;103137;-74
2021/03/29 10:37:33;;;;;;;13.83;9.93;;;;;;;9.76;95.94;101722.98;234961;1202;103236;-76
2021/03/29 10:42:36;;;;;;;13.83;8.57;;;;;;;9.76;94.39;101737.16;234728;1202;103139;-76
2021/03/29 10:47:40;;;;;;;13.57;10.00;;;;;;;9.49;93.22;101726.02;236049;1202;103216;-76
2021/03/29 10:52:42;;;;;;;15.30;10.20;;;;;;;9.50;96.61;101722.46;235309;1203;103178;-76
2021/03/29 10:57:47;;;;;;;12.93;8.53;;;;;;;9.50;97.86;101729.58;236729;1203;103466;-77
2021/03/29 11:02:48;;;;;;;11.47;9.30;;;;;;;9.44;96.42;101727.02;234454;1202;103201;-76
2021/03/29 11:07:50;;;;;;;15.30;11.20;;;;;;;9.53;97.27;101724.20;234213;1202;104360;-76
2021/03/29 11:12:51;;;;;;;13.70;10.30;;;;;;;9.43;95.85;101722.59;233648;1203;103207;-75
2021/03/29 11:17:53;;;;;;;20.57;12.97;;;;;;;9.69;95.62;101719.55;233491;1203;104480;-76
2021/03/29 11:22:54;;;;;;;18.67;12.87;;;;;;;9.73;93.88;101716.79;233559;1202;103241;-76
2021/03/29 11:27:56;;;;;;;17.10;12.30;;;;;;;9.79;95.53;101710.50;233831;1203;103143;-77
2021/03/29 11:32:58;;;;;;;15.73;12.90;;;;;;;9.77;91.75;101706.11;233635;1201;103274;-76
2021/03/29 11:37:59;;;;;;;23.35;14.80;;;;;;;9.88;91.11;101710.36;233777;1202;103233;-75
2021/03/29 11:43:01;;;;;;;18.85;14.50;;;;;;;10.04;89.24;101710.98;233773;1203;103149;-77
2021/03/29 11:48:02;;;;;;;21.20;14.90;;;;;;;9.99;88.39;101712.85;233780;1203;104530;-76
2021/03/29 11:53:04;;;;;;;16.90;11.60;;;;;;;10.05;88.04;101698.53;233547;1203;103190;-75
2021/03/29 11:58:06;;;;;;;20.70;14.25;;;;;;;10.21;87.08;101689.38;233705;1203;103159;-76
2021/03/29 12:13:48;;;;;;;17.33;14.17;;;;;;;10.72;83.94;101681.34;233814;1203;103245;-76
2021/03/29 12:18:53;;;;;;;32.65;24.80;;;;;;;10.85;82.60;101672.22;233722;1202;103510;-77
2021/03/29 12:24:02;;;;;;;28.87;22.50;;;;;;;11.02;80.94;101673.63;233973;1203;103191;-78
2021/03/29 12:29:07;;;;;;;19.50;15.70;;;;;;;11.07;79.57;101677.06;233815;1202;103142;-79
2021/03/29 12:34:09;;;;;;;15.10;12.05;;;;;;;11.06;79.42;101662.00;234182;1203;103143;-80
2021/03/29 12:39:34;;;;;;;15.48;11.23;;;;;;;11.22;78.74;101659.86;234168;1202;103178;-76
2021/03/29 12:44:36;;;;;;;18.00;12.20;;;;;;;11.21;79.73;101653.63;234105;1203;103184;-75
2021/03/29 12:49:38;;;;;;;18.00;12.35;;;;;;;11.27;79.18;101653.52;233694;1203;103167;-76
2021/03/29 12:54:40;;;;;;;15.40;11.90;;;;;;;11.29;78.06;101646.32;233809;1203;103149;-75
2021/03/29 12:59:41;;;;;;;11.85;9.90;;;;;;;11.26;78.30;101654.42;233808;1202;103199;-76
2021/03/29 13:04:44;;;;;;;13.35;9.55;;;;;;;11.25;77.91;101647.32;233699;1202;103226;-76
2021/03/29 13:09:54;;;;;;;16.65;10.43;;;;;;;11.35;77.50;101644.45;233772;1203;103210;-77
2021/03/29 13:15:02;;;;;;;14.90;10.50;;;;;;;11.50;78.00;101638.72;233725;1203;104623;-76
2021/03/29 13:20:09;;;;;;;12.77;8.90;;;;;;;11.54;77.01;101635.08;233723;1203;103299;-78
2021/03/29 13:25:11;;;;;;;12.70;9.47;;;;;;;11.52;76.92;101631.56;233775;1203;103178;-77
2021/03/29 13:30:17;;;;;;;11.00;9.05;;;;;;;11.44;77.03;101634.43;233692;1202;103340;-77
2021/03/29 13:35:20;;;;;;;14.10;9.77;;;;;;;11.42;78.58;101635.35;233859;1203;103219;-75
2021/03/29 13:40:22;;;;;;;10.70;8.67;;;;;;;11.39;79.62;101632.77;234041;1203;103226;-78
2021/03/29 13:45:25;;;;;;;13.80;9.33;;;;;;;11.37;80.27;101637.26;233861;1203;103181;-78
2021/03/29 13:50:30;;;;;;;14.30;9.37;;;;;;;11.38;81.94;101636.35;233753;1203;103144;-77
2021/03/29 13:55:32;;;;;;;;;;;;;;;11.42;81.81;101630.02;234277;1210;103146;-78
2021/03/29 14:00:33;;;;;;;12.50;9.70;;;;;;;11.31;83.98;101625.82;234112;1203;103235;-76
2021/03/29 14:05:35;;;;;;;13.40;9.50;;;;;;;11.31;81.31;101631.16;234509;1202;103492;-77
2021/03/29 14:10:38;;;;;;;9.07;7.67;;;;;;;11.34;82.04;101627.53;237805;1202;103246;-76
2021/03/29 14:15:43;;;;;;;15.70;10.47;;;;;;;11.37;81.85;101621.24;237193;1202;103330;-75
2021/03/29 14:20:45;;;;;;;11.10;8.70;;;;;;;11.46;82.59;101618.36;237381;1203;103220;-76
2021/03/29 14:25:46;;;;;;;14.40;9.23;;;;;;;11.52;82.04;101615.53;234626;1202;103210;-75
2021/03/29 14:30:48;;;;;;;12.48;8.48;;;;;;;11.38;82.21;101617.66;235158;1202;103226;-77
2021/03/29 14:36:02;;;;;;;12.25;9.40;;;;;;;11.32;84.24;101605.33;235616;1203;103222;-76
2021/03/29 14:46:24;;;;;;;14.50;9.57;;;;;;;11.23;86.99;101601.09;234218;1202;103200;-79
2021/03/29 14:51:27;;;;;;;10.60;7.93;;;;;;;11.16;87.01;101591.47;233721;1202;103191;-77
2021/03/29 14:56:28;;;;;;;10.60;9.40;;;;;;;11.08;88.83;101596.11;233830;1202;103201;-76
2021/03/29 15:01:30;;;;;;;16.95;10.03;;;;;;;10.97;90.86;101581.23;233733;1203;103143;-75
2021/03/29 15:07:17;;;;;;;9.97;8.63;;;;;;;11.01;89.70;101576.71;233731;1203;103209;-75
2021/03/29 15:11:59;;;;;;;12.70;9.15;;;;;;;11.01;91.24;101574.04;234410;1202;103145;-75
2021/03/29 15:17:11;;;;;;;11.25;9.60;;;;;;;11.02;90.87;101580.24;233498;1178;114841;-76
2021/03/29 15:22:13;;;;;;;13.03;9.47;;;;;;;10.93;91.19;101576.86;232950;1178;114878;-78
2021/03/29 15:27:15;;;;;;;13.53;9.23;;;;;;;10.97;91.94;101567.90;232820;1178;114716;-75
2021/03/29 15:32:17;;;;;;;11.15;8.60;;;;;;;10.99;93.07;101568.72;232819;1179;116289;-75
2021/03/29 15:37:18;;;;;;;11.15;8.90;;;;;;;11.01;92.91;101563.37;233285;1179;114702;-76
2021/03/29 15:42:22;;;;;;;11.30;9.40;;;;;;;11.03;93.48;101572.19;232877;1178;115158;-79
2021/03/29 15:47:24;;;;;;;15.73;11.60;;;;;;;10.98;95.14;101560.76;233268;1179;115204;-75
2021/03/29 15:52:25;;;;;;;11.15;9.53;;;;;;;10.94;95.32;101573.28;232652;1179;114968;-75
2021/03/29 15:57:36;;;;;;;12.55;10.70;;;;;;;10.95;95.09;101571.52;232939;1180;114682;-76
2021/03/29 16:02:42;;;;;;;17.07;13.17;;;;;;;10.97;95.34;101577.67;232754;1179;114861;-70
2021/03/29 16:07:45;;;;;;;17.73;12.80;;;;;;;11.02;93.74;101582.91;232815;1178;114792;-75
2021/03/29 16:12:47;;;;;;;12.90;10.50;;;;;;;11.04;92.84;101581.09;232813;1179;115018;-74
2021/03/29 16:17:51;;;;;;;12.80;10.10;;;;;;;10.94;93.10;101586.63;233573;1179;114937;-77
2021/03/29 16:22:54;;;;;;;12.90;10.50;;;;;;;10.98;93.62;101588.33;233456;1180;114855;-77
2021/03/29 16:27:56;;;;;;;15.80;10.25;;;;;;;10.93;94.00;101590.20;233501;1179;114993;-77
2021/03/29 16:32:59;;;;;;;12.13;8.58;;;;;;;10.89;94.97;101590.33;233668;1179;115151;-75
2021/03/29 16:38:00;;;;;;;15.70;11.70;;;;;;;10.74;99.19;101599.53;233434;1179;114827;-77
2021/03/29 16:43:04;;;;;;;14.45;11.68;;;;;;;10.71;100.00;101597.80;233456;1179;115052;-76
2021/03/29 16:48:06;;;;;;;15.40;11.80;;;;;;;10.68;100.00;101608.53;233244;1178;116269;-77
2021/03/29 16:53:09;;;;;;;16.98;12.78;;;;;;;10.54;100.00;101603.50;233374;1179;116659;-78
2021/03/29 16:58:10;;;;;;;17.20;12.70;;;;;;;10.46;100.00;101608.09;233401;1179;115280;-76
2021/03/29 17:03:12;;;;;;;15.03;12.60;;;;;;;10.32;100.00;101617.22;233248;1178;115004;-76
2021/03/29 17:08:14;;;;;;;15.80;11.85;;;;;;;10.26;100.00;101625.34;233370;1178;115040;-77
2021/03/29 17:13:15;;;;;;;14.35;12.30;;;;;;;10.25;100.00;101631.57;233477;1177;115125;-76
2021/03/29 17:18:17;;;;;;;19.83;14.25;;;;;;;10.20;100.00;101628.98;233328;1178;115006;-76
2021/03/29 17:23:21;;;;;;;26.25;21.10;;;;;;;10.12;100.00;101630.05;233154;1178;116012;-76
2021/03/29 17:28:22;;;;;;;19.93;15.07;;;;;;;10.05;100.00;101626.59;234087;1179;115073;-75
2021/03/29 17:33:24;;;;;;;19.73;15.07;;;;;;;9.99;100.00;101632.94;234806;1179;115089;-76
2021/03/29 17:38:25;;;;;;;22.40;17.10;;;;;;;9.95;100.00;101636.55;235865;1180;115115;-74
2021/03/29 17:43:27;;;;;;;24.75;19.25;;;;;;;9.87;100.00;101633.13;233571;1179;115231;-76
2021/03/29 17:48:28;;;;;;;22.90;20.25;;;;;;;9.78;100.00;101647.48;233221;1178;115000;-77
2021/03/29 17:53:30;;;;;;;20.17;17.03;;;;;;;9.75;100.00;101641.33;233099;1179;114727;-74
2021/03/29 17:58:31;;;;;;;21.80;18.07;;;;;;;9.75;100.00;101649.32;233331;1180;114885;-75
2021/03/29 18:03:33;;;;;;;23.80;20.10;;;;;;;9.69;100.00;101650.32;233179;1179;114943;-75
2021/03/29 18:08:36;;;;;;;22.60;16.67;;;;;;;9.58;100.00;101647.83;232937;1179;115322;-74
2021/03/29 18:13:38;;;;;;;24.60;19.25;;;;;;;9.68;100.00;101662.73;232478;1179;115864;-75
2021/03/29 18:18:40;;;;;;;22.10;19.45;;;;;;;9.64;100.00;101669.03;233074;1179;115317;-74
2021/03/29 18:23:43;;;;;;;25.85;21.40;;;;;;;9.61;100.00;101663.73;232860;1179;114769;-72
2021/03/29 18:28:45;;;;;;;29.40;20.55;;;;;;;9.59;100.00;101675.31;232548;1179;114782;-74
2021/03/29 18:33:46;;;;;;;30.00;21.28;;;;;;;9.49;100.00;101679.91;233057;1178;114961;-74
2021/03/29 18:38:48;;;;;;;31.10;21.90;;;;;;;9.51;100.00;101678.11;233088;1179;115146;-75
2021/03/29 18:43:50;;;;;;;29.73;24.03;;;;;;;9.46;100.00;101679.94;232584;1178;114887;-74
2021/03/29 18:48:52;;;;;;;36.50;28.93;;;;;;;9.47;100.00;101681.70;233093;1178;114813;-74
2021/03/29 18:53:55;;;;;;;44.70;33.60;;;;;;;9.50;100.00;101686.99;232995;1177;114787;-74
2021/03/29 18:58:56;;;;;;;29.63;23.83;;;;;;;9.34;100.00;101687.20;232988;1178;114845;-79
2021/03/29 19:03:59;;;;;;;28.53;24.53;;;;;;;9.38;100.00;101696.90;233071;1179;115068;-75
2021/03/29 19:09:04;;;;;;;27.58;23.40;;;;;;;9.38;100.00;101704.88;233031;1178;114831;-75
2021/03/29 19:14:05;;;;;;;;;;;;;;;9.37;100.00;101697.80;232915;1178;114864;-76
2021/03/29 19:19:09;;;;;;;29.85;25.45;;;;;;;9.36;100.00;101690.73;232832;1177;103251;-75
2021/03/29 19:24:13;;;;;;;24.45;21.90;;;;;;;9.37;100.00;101695.13;232980;1179;114802;-74
2021/03/29 19:29:15;;;;;;;25.85;22.40;;;;;;;9.36;100.00;101705.80;232824;1179;115553;-75
2021/03/29 19:34:16;;;;;;;28.77;23.07;;;;;;;9.32;100.00;101696.98;233148;1179;115301;-73
2021/03/29 19:39:18;;;;;;;31.00;24.80;;;;;;;9.26;100.00;101699.73;232587;1180;115028;-74
2021/03/29 19:44:20;;;;;;;28.40;23.97;;;;;;;9.31;100.00;101697.88;233159;1179;114861;-76
2021/03/29 19:49:21;;;;;;;23.60;20.37;;;;;;;9.28;100.00;101692.63;233159;1179;114828;-75
2021/03/29 19:54:23;;;;;;;21.65;19.15;;;;;;;9.26;100.00;101694.41;232770;1180;114866;-75
2021/03/29 19:59:24;;;;;;;24.80;20.30;;;;;;;9.26;100.00;101691.75;233130;1180;114818;-75
2021/03/29 20:09:50;;;;;;;24.65;19.65;;;;;;;9.15;100.00;101691.03;233004;1179;115121;-77
2021/03/29 20:14:52;;;;;;;21.93;18.93;;;;;;;9.11;100.00;101691.95;233060;1180;115177;-75
2021/03/29 20:19:53;;;;;;;21.30;18.55;;;;;;;9.12;100.00;101686.64;233100;1179;117424;-74
2021/03/29 20:24:55;;;;;;;21.90;17.50;;;;;;;9.15;100.00;101696.35;232992;1179;115094;-74
2021/03/29 20:29:57;;;;;;;18.98;16.85;;;;;;;9.13;100.00;101682.18;232952;1178;115155;-72
2021/03/29 20:35:00;;;;;;;20.40;17.80;;;;;;;9.12;100.00;101669.78;232431;1179;115255;-72
2021/03/29 20:40:01;;;;;;;20.70;17.35;;;;;;;9.22;100.00;101671.42;232490;1180;114935;-72
2021/03/29 20:45:05;;;;;;;19.40;17.25;;;;;;;9.18;100.00;101675.01;232715;1179;114893;-73
2021/03/29 20:50:07;;;;;;;23.00;17.10;;;;;;;9.13;100.00;101671.54;233130;1179;114891;-74
2021/03/29 20:55:09;;;;;;;18.20;15.70;;;;;;;9.07;100.00;101657.44;233285;1178;115171;-74
2021/03/29 21:00:13;;;;;;;22.20;17.45;;;;;;;9.14;100.00;101662.66;233327;1179;115073;-74
2021/03/29 21:05:14;;;;;;;22.43;17.60;;;;;;;9.18;100.00;101662.61;233713;1180;114525;-74
2021/03/29 21:10:17;;;;;;;22.90;17.40;;;;;;;9.11;100.00;101657.38;232838;1203;103223;-75
2021/03/29 21:15:20;;;;;;;19.33;15.67;;;;;;;9.12;100.00;101659.13;232985;1203;103213;-75
2021/03/29 21:20:22;;;;;;;19.38;16.78;;;;;;;9.14;100.00;101658.21;233647;1203;103162;-75
2021/03/29 21:25:24;;;;;;;26.40;17.85;;;;;;;9.12;100.00;101653.81;232977;1202;103504;-73
2021/03/29 21:30:25;;;;;;;23.13;15.98;;;;;;;9.14;100.00;101652.02;233506;1202;103274;-74
2021/03/29 21:35:30;;;;;;;18.60;15.00;;;;;;;9.11;100.00;101649.39;233533;1203;103206;-75
2021/03/29 21:40:33;;;;;;;18.60;16.60;;;;;;;9.11;100.00;101638.75;233584;1203;111859;-75
2021/03/29 21:45:35;;;;;;;22.00;18.00;;;;;;;9.06;100.00;101636.15;233796;1203;103212;-73
2021/03/29 21:50:36;;;;;;;19.08;16.03;;;;;;;9.11;100.00;101633.43;233327;1203;103216;-73
2021/03/29 21:55:38;;;;;;;15.55;13.90;;;;;;;9.09;100.00;101628.14;233427;1203;103142;-74
2021/03/29 22:00:39;;;;;;;20.33;16.63;;;;;;;9.13;100.00;101635.16;232877;1203;103219;-74
2021/03/29 22:05:41;;;;;;;21.65;17.75;;;;;;;9.06;100.00;101634.39;232957;1202;103549;-75
2021/03/29 22:10:42;;;;;;;17.40;14.17;;;;;;;9.08;100.00;101637.91;233566;1203;103226;-75
2021/03/29 22:15:44;;;;;;;22.00;17.03;;;;;;;9.06;100.00;101636.15;233051;1203;103150;-75
2021/03/29 22:20:45;;;;;;;19.80;15.57;;;;;;;9.02;100.00;101635.31;232915;1203;103243;-76
2021/03/29 22:25:47;;;;;;;21.15;16.15;;;;;;;9.11;100.00;101638.75;233016;1202;103211;-74
2021/03/29 22:46:23;;;;;;;21.03;16.63;;;;;;;9.09;100.00;101636.98;233578;1203;103274;-75
2021/03/29 22:51:25;;;;;;;19.40;15.37;;;;;;;9.08;100.00;101637.91;233028;1202;104377;-75
2021/03/29 22:56:26;;;;;;;21.13;16.57;;;;;;;8.99;100.00;101638.03;232941;1203;103155;-73
2021/03/29 23:01:28;;;;;;;15.73;14.08;;;;;;;8.96;100.00;101631.88;232789;1203;104670;-74
2021/03/29 23:06:29;;;;;;;20.35;16.15;;;;;;;9.01;100.00;101630.92;232932;1203;103564;-73
2021/03/29 23:11:32;;;;;;;18.90;15.45;;;;;;;9.00;100.00;101629.16;233612;1203;103306;-75
2021/03/29 23:16:34;;;;;;;17.50;15.67;;;;;;;9.03;100.00;101637.08;233087;1202;103289;-76